sensor_id;sensor_type;location;lat;lon;timestamp;P1;durP1;ratioP1;P2;durP2;ratioP2
62798;SDS011;48842;51.046;13.796;2022-08-21T00:00:14;53.43;;;40.37;;
62798;SDS011;48842;51.046;13.796;2022-08-21T00:02:49;52.70;;;38.57;;
62798;SDS011;48842;51.046;13.796;2022-08-21T00:05:17;46.97;;;36.20;;
62798;SDS011;48842;51.046;13.796;2022-08-21T00:07:42;42.20;;;35.37;;
62798;SDS011;48842;51.046;13.796;2022-08-21T00:10:07;43.40;;;35.07;;
62798;SDS011;48842;51.046;13.796;2022-08-21T00:12:33;47.90;;;38.70;;
62798;SDS011;48842;51.046;13.796;2022-08-21T00:14:58;48.27;;;36.87;;
62798;SDS011;48842;51.046;13.796;2022-08-21T00:17:23;50.03;;;37.27;;
62798;SDS011;48842;51.046;13.796;2022-08-21T00:19:49;45.73;;;37.53;;
62798;SDS011;48842;51.046;13.796;2022-08-21T00:22:14;53.70;;;38.90;;
62798;SDS011;48842;51.046;13.796;2022-08-21T00:24:39;52.57;;;38.70;;
62798;SDS011;48842;51.046;13.796;2022-08-21T00:27:04;48.17;;;37.97;;
62798;SDS011;48842;51.046;13.796;2022-08-21T00:29:30;49.23;;;38.40;;
62798;SDS011;48842;51.046;13.796;2022-08-21T00:31:55;52.67;;;40.67;;
62798;SDS011;48842;51.046;13.796;2022-08-21T00:34:20;51.30;;;38.30;;
62798;SDS011;48842;51.046;13.796;2022-08-21T00:36:46;53.87;;;39.07;;
62798;SDS011;48842;51.046;13.796;2022-08-21T00:39:11;50.97;;;38.63;;
62798;SDS011;48842;51.046;13.796;2022-08-21T00:41:37;51.77;;;39.10;;
62798;SDS011;48842;51.046;13.796;2022-08-21T00:44:05;51.77;;;38.83;;
62798;SDS011;48842;51.046;13.796;2022-08-21T00:46:32;58.13;;;39.67;;
62798;SDS011;48842;51.046;13.796;2022-08-21T00:48:58;45.40;;;38.10;;
62798;SDS011;48842;51.046;13.796;2022-08-21T00:51:24;51.53;;;38.43;;
62798;SDS011;48842;51.046;13.796;2022-08-21T00:53:55;50.80;;;38.07;;
62798;SDS011;48842;51.046;13.796;2022-08-21T00:56:24;48.93;;;39.70;;
62798;SDS011;48842;51.046;13.796;2022-08-21T00:58:50;45.90;;;36.03;;
62798;SDS011;48842;51.046;13.796;2022-08-21T01:01:18;46.30;;;38.60;;
62798;SDS011;48842;51.046;13.796;2022-08-21T01:03:44;52.27;;;40.30;;
62798;SDS011;48842;51.046;13.796;2022-08-21T01:06:11;56.70;;;42.90;;
62798;SDS011;48842;51.046;13.796;2022-08-21T01:08:36;55.43;;;43.53;;
62798;SDS011;48842;51.046;13.796;2022-08-21T01:11:02;53.63;;;41.07;;
62798;SDS011;48842;51.046;13.796;2022-08-21T01:13:29;63.23;;;44.00;;
62798;SDS011;48842;51.046;13.796;2022-08-21T01:15:58;54.97;;;43.50;;
62798;SDS011;48842;51.046;13.796;2022-08-21T01:18:26;54.77;;;42.63;;
62798;SDS011;48842;51.046;13.796;2022-08-21T01:21:12;55.07;;;42.80;;
62798;SDS011;48842;51.046;13.796;2022-08-21T01:23:41;64.90;;;41.43;;
62798;SDS011;48842;51.046;13.796;2022-08-21T01:26:08;48.40;;;39.53;;
62798;SDS011;48842;51.046;13.796;2022-08-21T01:28:38;50.00;;;38.80;;
62798;SDS011;48842;51.046;13.796;2022-08-21T01:31:07;42.97;;;33.67;;
62798;SDS011;48842;51.046;13.796;2022-08-21T01:33:35;38.90;;;33.03;;
62798;SDS011;48842;51.046;13.796;2022-08-21T01:36:00;37.90;;;32.67;;
62798;SDS011;48842;51.046;13.796;2022-08-21T01:38:26;40.70;;;32.73;;
62798;SDS011;48842;51.046;13.796;2022-08-21T01:40:51;39.63;;;32.00;;
62798;SDS011;48842;51.046;13.796;2022-08-21T01:43:16;32.63;;;26.63;;
62798;SDS011;48842;51.046;13.796;2022-08-21T01:45:42;29.30;;;23.57;;
62798;SDS011;48842;51.046;13.796;2022-08-21T01:48:07;30.80;;;24.03;;
62798;SDS011;48842;51.046;13.796;2022-08-21T01:50:33;28.93;;;23.43;;
62798;SDS011;48842;51.046;13.796;2022-08-21T01:52:59;26.37;;;23.53;;
62798;SDS011;48842;51.046;13.796;2022-08-21T01:55:24;25.93;;;22.97;;
62798;SDS011;48842;51.046;13.796;2022-08-21T01:57:49;25.63;;;19.90;;
62798;SDS011;48842;51.046;13.796;2022-08-21T02:00:16;22.40;;;19.63;;
62798;SDS011;48842;51.046;13.796;2022-08-21T02:02:43;19.77;;;17.73;;
62798;SDS011;48842;51.046;13.796;2022-08-21T02:05:08;20.70;;;18.60;;
62798;SDS011;48842;51.046;13.796;2022-08-21T02:07:39;20.37;;;18.17;;
62798;SDS011;48842;51.046;13.796;2022-08-21T02:10:08;17.77;;;15.90;;
62798;SDS011;48842;51.046;13.796;2022-08-21T02:12:35;18.63;;;16.80;;
62798;SDS011;48842;51.046;13.796;2022-08-21T02:15:02;19.40;;;17.30;;
62798;SDS011;48842;51.046;13.796;2022-08-21T02:17:36;18.93;;;16.77;;
62798;SDS011;48842;51.046;13.796;2022-08-21T02:20:05;17.00;;;15.30;;
62798;SDS011;48842;51.046;13.796;2022-08-21T02:22:31;18.30;;;16.40;;
62798;SDS011;48842;51.046;13.796;2022-08-21T02:24:56;17.67;;;15.77;;
62798;SDS011;48842;51.046;13.796;2022-08-21T02:27:22;19.20;;;17.30;;
62798;SDS011;48842;51.046;13.796;2022-08-21T02:29:48;22.43;;;18.20;;
62798;SDS011;48842;51.046;13.796;2022-08-21T02:32:14;18.07;;;16.23;;
62798;SDS011;48842;51.046;13.796;2022-08-21T02:34:39;18.50;;;16.07;;
62798;SDS011;48842;51.046;13.796;2022-08-21T02:37:04;15.77;;;14.37;;
62798;SDS011;48842;51.046;13.796;2022-08-21T02:39:29;14.70;;;13.40;;
62798;SDS011;48842;51.046;13.796;2022-08-21T02:41:55;19.37;;;16.67;;
62798;SDS011;48842;51.046;13.796;2022-08-21T02:44:20;15.83;;;14.17;;
62798;SDS011;48842;51.046;13.796;2022-08-21T02:46:45;17.30;;;15.63;;
62798;SDS011;48842;51.046;13.796;2022-08-21T02:49:10;17.77;;;15.97;;
62798;SDS011;48842;51.046;13.796;2022-08-21T02:51:36;20.97;;;16.67;;
62798;SDS011;48842;51.046;13.796;2022-08-21T02:54:01;18.53;;;16.63;;
62798;SDS011;48842;51.046;13.796;2022-08-21T02:56:26;18.37;;;16.50;;
62798;SDS011;48842;51.046;13.796;2022-08-21T02:58:52;17.90;;;16.10;;
62798;SDS011;48842;51.046;13.796;2022-08-21T03:01:17;21.13;;;18.60;;
62798;SDS011;48842;51.046;13.796;2022-08-21T03:03:44;20.90;;;18.60;;
62798;SDS011;48842;51.046;13.796;2022-08-21T03:06:12;19.00;;;17.07;;
62798;SDS011;48842;51.046;13.796;2022-08-21T03:08:39;25.10;;;18.43;;
62798;SDS011;48842;51.046;13.796;2022-08-21T03:11:05;19.90;;;17.80;;
62798;SDS011;48842;51.046;13.796;2022-08-21T03:13:32;21.90;;;18.60;;
62798;SDS011;48842;51.046;13.796;2022-08-21T03:15:57;20.50;;;17.50;;
62798;SDS011;48842;51.046;13.796;2022-08-21T03:18:23;19.80;;;17.70;;
62798;SDS011;48842;51.046;13.796;2022-08-21T03:20:48;20.27;;;18.27;;
62798;SDS011;48842;51.046;13.796;2022-08-21T03:23:14;21.60;;;18.57;;
62798;SDS011;48842;51.046;13.796;2022-08-21T03:25:40;21.50;;;19.20;;
62798;SDS011;48842;51.046;13.796;2022-08-21T03:28:06;21.83;;;18.73;;
62798;SDS011;48842;51.046;13.796;2022-08-21T03:30:33;21.50;;;18.90;;
62798;SDS011;48842;51.046;13.796;2022-08-21T03:32:59;21.40;;;18.00;;
62798;SDS011;48842;51.046;13.796;2022-08-21T03:35:25;20.57;;;18.47;;
62798;SDS011;48842;51.046;13.796;2022-08-21T03:37:51;17.47;;;15.67;;
62798;SDS011;48842;51.046;13.796;2022-08-21T03:40:17;17.93;;;16.03;;
62798;SDS011;48842;51.046;13.796;2022-08-21T03:42:44;22.23;;;18.10;;
62798;SDS011;48842;51.046;13.796;2022-08-21T03:45:11;20.37;;;18.20;;
62798;SDS011;48842;51.046;13.796;2022-08-21T03:47:38;21.63;;;16.63;;
62798;SDS011;48842;51.046;13.796;2022-08-21T03:50:04;23.63;;;18.50;;
62798;SDS011;48842;51.046;13.796;2022-08-21T03:52:30;21.80;;;18.83;;
62798;SDS011;48842;51.046;13.796;2022-08-21T03:54:55;24.83;;;18.30;;
62798;SDS011;48842;51.046;13.796;2022-08-21T03:57:20;23.73;;;19.77;;
62798;SDS011;48842;51.046;13.796;2022-08-21T03:59:46;26.60;;;20.13;;
62798;SDS011;48842;51.046;13.796;2022-08-21T04:02:12;20.27;;;17.90;;
62798;SDS011;48842;51.046;13.796;2022-08-21T04:04:41;21.63;;;19.17;;
62798;SDS011;48842;51.046;13.796;2022-08-21T04:07:07;27.70;;;19.20;;
62798;SDS011;48842;51.046;13.796;2022-08-21T04:09:32;21.50;;;17.93;;
62798;SDS011;48842;51.046;13.796;2022-08-21T04:11:58;22.80;;;20.23;;
62798;SDS011;48842;51.046;13.796;2022-08-21T04:14:24;19.03;;;17.00;;
62798;SDS011;48842;51.046;13.796;2022-08-21T04:16:49;17.63;;;15.80;;
62798;SDS011;48842;51.046;13.796;2022-08-21T04:19:15;18.17;;;16.30;;
62798;SDS011;48842;51.046;13.796;2022-08-21T04:21:40;22.37;;;17.70;;
62798;SDS011;48842;51.046;13.796;2022-08-21T04:24:06;22.33;;;15.80;;
62798;SDS011;48842;51.046;13.796;2022-08-21T04:26:34;19.73;;;16.70;;
62798;SDS011;48842;51.046;13.796;2022-08-21T04:29:01;18.57;;;16.57;;
62798;SDS011;48842;51.046;13.796;2022-08-21T04:31:26;18.67;;;16.63;;
62798;SDS011;48842;51.046;13.796;2022-08-21T04:33:53;21.00;;;17.40;;
62798;SDS011;48842;51.046;13.796;2022-08-21T04:36:19;21.40;;;17.10;;
62798;SDS011;48842;51.046;13.796;2022-08-21T04:38:44;19.83;;;17.80;;
62798;SDS011;48842;51.046;13.796;2022-08-21T04:41:09;23.10;;;17.90;;
62798;SDS011;48842;51.046;13.796;2022-08-21T04:43:34;19.07;;;16.97;;
62798;SDS011;48842;51.046;13.796;2022-08-21T04:46:00;19.27;;;17.37;;
62798;SDS011;48842;51.046;13.796;2022-08-21T04:48:25;20.33;;;18.23;;
62798;SDS011;48842;51.046;13.796;2022-08-21T04:53:24;18.70;;;16.80;;
62798;SDS011;48842;51.046;13.796;2022-08-21T04:55:55;18.20;;;16.30;;
62798;SDS011;48842;51.046;13.796;2022-08-21T04:58:22;18.83;;;16.83;;
62798;SDS011;48842;51.046;13.796;2022-08-21T05:00:52;19.27;;;17.03;;
62798;SDS011;48842;51.046;13.796;2022-08-21T05:03:19;18.60;;;16.70;;
62798;SDS011;48842;51.046;13.796;2022-08-21T05:05:46;17.57;;;15.80;;
62798;SDS011;48842;51.046;13.796;2022-08-21T05:08:12;18.23;;;16.23;;
62798;SDS011;48842;51.046;13.796;2022-08-21T05:10:40;18.53;;;16.70;;
62798;SDS011;48842;51.046;13.796;2022-08-21T05:13:07;18.13;;;16.30;;
62798;SDS011;48842;51.046;13.796;2022-08-21T05:15:32;17.23;;;15.50;;
62798;SDS011;48842;51.046;13.796;2022-08-21T05:17:57;16.93;;;15.27;;
62798;SDS011;48842;51.046;13.796;2022-08-21T05:20:23;17.27;;;15.63;;
62798;SDS011;48842;51.046;13.796;2022-08-21T05:22:48;19.77;;;16.50;;
62798;SDS011;48842;51.046;13.796;2022-08-21T05:25:13;19.67;;;17.73;;
62798;SDS011;48842;51.046;13.796;2022-08-21T05:27:39;23.37;;;18.30;;
62798;SDS011;48842;51.046;13.796;2022-08-21T05:30:07;19.73;;;17.67;;
62798;SDS011;48842;51.046;13.796;2022-08-21T05:32:33;20.10;;;18.00;;
62798;SDS011;48842;51.046;13.796;2022-08-21T05:34:59;19.33;;;17.13;;
62798;SDS011;48842;51.046;13.796;2022-08-21T05:37:25;21.63;;;16.67;;
62798;SDS011;48842;51.046;13.796;2022-08-21T05:39:50;18.13;;;16.23;;
62798;SDS011;48842;51.046;13.796;2022-08-21T05:42:15;16.23;;;14.53;;
62798;SDS011;48842;51.046;13.796;2022-08-21T05:44:41;16.73;;;15.03;;
62798;SDS011;48842;51.046;13.796;2022-08-21T05:47:07;17.07;;;15.37;;
62798;SDS011;48842;51.046;13.796;2022-08-21T05:49:33;17.47;;;15.77;;
62798;SDS011;48842;51.046;13.796;2022-08-21T05:52:00;18.20;;;16.50;;
62798;SDS011;48842;51.046;13.796;2022-08-21T05:54:25;17.93;;;16.03;;
62798;SDS011;48842;51.046;13.796;2022-08-21T05:56:51;17.77;;;16.07;;
62798;SDS011;48842;51.046;13.796;2022-08-21T05:59:17;17.57;;;14.50;;
62798;SDS011;48842;51.046;13.796;2022-08-21T06:01:43;17.47;;;15.80;;
62798;SDS011;48842;51.046;13.796;2022-08-21T06:04:08;17.50;;;15.80;;
62798;SDS011;48842;51.046;13.796;2022-08-21T06:06:34;20.00;;;15.80;;
62798;SDS011;48842;51.046;13.796;2022-08-21T06:09:00;19.23;;;16.97;;
62798;SDS011;48842;51.046;13.796;2022-08-21T06:11:25;21.93;;;17.23;;
62798;SDS011;48842;51.046;13.796;2022-08-21T06:13:51;18.80;;;16.93;;
62798;SDS011;48842;51.046;13.796;2022-08-21T06:16:16;22.13;;;18.93;;
62798;SDS011;48842;51.046;13.796;2022-08-21T06:18:42;16.93;;;15.40;;
62798;SDS011;48842;51.046;13.796;2022-08-21T06:21:09;20.40;;;18.30;;
62798;SDS011;48842;51.046;13.796;2022-08-21T06:23:36;22.43;;;20.10;;
62798;SDS011;48842;51.046;13.796;2022-08-21T06:26:02;20.90;;;18.80;;
62798;SDS011;48842;51.046;13.796;2022-08-21T06:28:29;20.17;;;18.27;;
62798;SDS011;48842;51.046;13.796;2022-08-21T06:30:55;26.90;;;19.77;;
62798;SDS011;48842;51.046;13.796;2022-08-21T06:33:20;24.67;;;21.50;;
62798;SDS011;48842;51.046;13.796;2022-08-21T06:35:45;24.03;;;21.43;;
62798;SDS011;48842;51.046;13.796;2022-08-21T06:38:10;23.00;;;20.10;;
62798;SDS011;48842;51.046;13.796;2022-08-21T06:40:36;23.53;;;21.10;;
62798;SDS011;48842;51.046;13.796;2022-08-21T06:43:06;25.70;;;21.53;;
62798;SDS011;48842;51.046;13.796;2022-08-21T06:45:41;24.80;;;21.50;;
62798;SDS011;48842;51.046;13.796;2022-08-21T06:48:07;24.70;;;22.20;;
62798;SDS011;48842;51.046;13.796;2022-08-21T06:50:33;24.63;;;22.03;;
62798;SDS011;48842;51.046;13.796;2022-08-21T06:53:06;28.70;;;23.20;;
62798;SDS011;48842;51.046;13.796;2022-08-21T06:55:34;30.60;;;27.00;;
62798;SDS011;48842;51.046;13.796;2022-08-21T06:57:59;32.40;;;25.90;;
62798;SDS011;48842;51.046;13.796;2022-08-21T07:00:25;29.67;;;25.30;;
62798;SDS011;48842;51.046;13.796;2022-08-21T07:02:51;34.10;;;28.60;;
62798;SDS011;48842;51.046;13.796;2022-08-21T07:05:16;36.80;;;28.43;;
62798;SDS011;48842;51.046;13.796;2022-08-21T07:07:42;32.97;;;25.53;;
62798;SDS011;48842;51.046;13.796;2022-08-21T07:10:07;28.77;;;25.87;;
62798;SDS011;48842;51.046;13.796;2022-08-21T07:12:33;30.33;;;26.40;;
62798;SDS011;48842;51.046;13.796;2022-08-21T07:14:58;32.17;;;25.73;;
62798;SDS011;48842;51.046;13.796;2022-08-21T07:17:23;27.23;;;24.37;;
62798;SDS011;48842;51.046;13.796;2022-08-21T07:19:48;27.07;;;24.43;;
62798;SDS011;48842;51.046;13.796;2022-08-21T07:22:16;27.90;;;25.00;;
62798;SDS011;48842;51.046;13.796;2022-08-21T07:24:45;28.03;;;24.97;;
62798;SDS011;48842;51.046;13.796;2022-08-21T07:27:10;27.40;;;24.50;;
62798;SDS011;48842;51.046;13.796;2022-08-21T07:29:35;26.40;;;23.50;;
62798;SDS011;48842;51.046;13.796;2022-08-21T07:32:00;28.03;;;25.17;;
62798;SDS011;48842;51.046;13.796;2022-08-21T07:34:26;30.50;;;24.70;;
62798;SDS011;48842;51.046;13.796;2022-08-21T07:36:51;27.40;;;24.53;;
62798;SDS011;48842;51.046;13.796;2022-08-21T07:39:17;27.53;;;24.30;;
62798;SDS011;48842;51.046;13.796;2022-08-21T07:41:42;29.87;;;23.47;;
62798;SDS011;48842;51.046;13.796;2022-08-21T07:44:07;22.77;;;20.37;;
62798;SDS011;48842;51.046;13.796;2022-08-21T07:46:32;23.03;;;20.43;;
62798;SDS011;48842;51.046;13.796;2022-08-21T07:48:58;26.07;;;19.93;;
62798;SDS011;48842;51.046;13.796;2022-08-21T07:51:24;25.60;;;23.20;;
62798;SDS011;48842;51.046;13.796;2022-08-21T07:53:52;23.47;;;21.00;;
62798;SDS011;48842;51.046;13.796;2022-08-21T07:56:20;22.77;;;20.40;;
62798;SDS011;48842;51.046;13.796;2022-08-21T07:58:48;21.50;;;19.40;;
62798;SDS011;48842;51.046;13.796;2022-08-21T08:01:14;21.20;;;19.00;;
62798;SDS011;48842;51.046;13.796;2022-08-21T08:03:43;20.93;;;18.93;;
62798;SDS011;48842;51.046;13.796;2022-08-21T08:06:08;24.27;;;21.63;;
62798;SDS011;48842;51.046;13.796;2022-08-21T08:08:37;21.70;;;19.40;;
62798;SDS011;48842;51.046;13.796;2022-08-21T08:11:05;21.53;;;19.40;;
62798;SDS011;48842;51.046;13.796;2022-08-21T08:13:31;19.00;;;17.30;;
62798;SDS011;48842;51.046;13.796;2022-08-21T08:15:56;20.00;;;17.17;;
62798;SDS011;48842;51.046;13.796;2022-08-21T08:18:21;21.93;;;18.53;;
62798;SDS011;48842;51.046;13.796;2022-08-21T08:20:47;26.20;;;19.87;;
62798;SDS011;48842;51.046;13.796;2022-08-21T08:23:13;21.70;;;19.50;;
62798;SDS011;48842;51.046;13.796;2022-08-21T08:25:39;19.37;;;17.57;;
62798;SDS011;48842;51.046;13.796;2022-08-21T08:28:04;19.70;;;17.77;;
62798;SDS011;48842;51.046;13.796;2022-08-21T08:30:31;23.33;;;18.30;;
62798;SDS011;48842;51.046;13.796;2022-08-21T08:32:56;21.43;;;18.13;;
62798;SDS011;48842;51.046;13.796;2022-08-21T08:35:22;20.37;;;18.30;;
62798;SDS011;48842;51.046;13.796;2022-08-21T08:37:49;19.30;;;16.97;;
62798;SDS011;48842;51.046;13.796;2022-08-21T08:40:18;19.87;;;18.00;;
62798;SDS011;48842;51.046;13.796;2022-08-21T08:42:50;19.07;;;17.10;;
62798;SDS011;48842;51.046;13.796;2022-08-21T08:45:17;23.00;;;19.03;;
62798;SDS011;48842;51.046;13.796;2022-08-21T08:47:47;18.53;;;16.80;;
62798;SDS011;48842;51.046;13.796;2022-08-21T08:50:27;20.07;;;17.90;;
62798;SDS011;48842;51.046;13.796;2022-08-21T08:53:08;22.27;;;18.70;;
62798;SDS011;48842;51.046;13.796;2022-08-21T08:55:39;19.63;;;17.63;;
62798;SDS011;48842;51.046;13.796;2022-08-21T08:58:08;19.97;;;17.97;;
62798;SDS011;48842;51.046;13.796;2022-08-21T09:00:37;21.10;;;18.90;;
62798;SDS011;48842;51.046;13.796;2022-08-21T09:03:03;18.63;;;16.83;;
62798;SDS011;48842;51.046;13.796;2022-08-21T09:05:42;18.60;;;16.67;;
62798;SDS011;48842;51.046;13.796;2022-08-21T09:08:20;19.40;;;16.17;;
62798;SDS011;48842;51.046;13.796;2022-08-21T09:17:10;18.77;;;15.47;;
62798;SDS011;48842;51.046;13.796;2022-08-21T09:19:48;17.20;;;15.07;;
62798;SDS011;48842;51.046;13.796;2022-08-21T09:22:28;14.70;;;13.10;;
62798;SDS011;48842;51.046;13.796;2022-08-21T09:27:52;13.53;;;12.17;;
62798;SDS011;48842;51.046;13.796;2022-08-21T09:30:17;12.80;;;11.60;;
62798;SDS011;48842;51.046;13.796;2022-08-21T09:32:48;12.47;;;11.30;;
62798;SDS011;48842;51.046;13.796;2022-08-21T09:35:15;10.53;;;9.30;;
62798;SDS011;48842;51.046;13.796;2022-08-21T09:37:59;10.77;;;8.83;;
62798;SDS011;48842;51.046;13.796;2022-08-21T09:42:57;8.93;;;5.37;;
62798;SDS011;48842;51.046;13.796;2022-08-21T09:45:28;9.63;;;5.63;;
62798;SDS011;48842;51.046;13.796;2022-08-21T09:47:53;9.70;;;6.63;;
62798;SDS011;48842;51.046;13.796;2022-08-21T09:50:24;10.97;;;7.17;;
62798;SDS011;48842;51.046;13.796;2022-08-21T09:52:58;7.70;;;6.00;;
62798;SDS011;48842;51.046;13.796;2022-08-21T09:55:33;7.80;;;5.30;;
62798;SDS011;48842;51.046;13.796;2022-08-21T09:58:21;9.00;;;6.13;;
62798;SDS011;48842;51.046;13.796;2022-08-21T10:00:57;7.77;;;5.27;;
62798;SDS011;48842;51.046;13.796;2022-08-21T10:03:24;13.33;;;4.90;;
62798;SDS011;48842;51.046;13.796;2022-08-21T10:06:08;7.17;;;6.47;;
62798;SDS011;48842;51.046;13.796;2022-08-21T10:08:36;7.00;;;5.63;;
62798;SDS011;48842;51.046;13.796;2022-08-21T10:11:07;9.53;;;5.70;;
62798;SDS011;48842;51.046;13.796;2022-08-21T10:13:45;9.50;;;5.40;;
62798;SDS011;48842;51.046;13.796;2022-08-21T10:16:42;7.60;;;4.80;;
62798;SDS011;48842;51.046;13.796;2022-08-21T10:19:42;9.33;;;4.37;;
62798;SDS011;48842;51.046;13.796;2022-08-21T10:37:20;6.53;;;3.90;;
62798;SDS011;48842;51.046;13.796;2022-08-21T10:43:21;13.40;;;4.50;;
62798;SDS011;48842;51.046;13.796;2022-08-21T10:48:58;5.70;;;4.00;;
62798;SDS011;48842;51.046;13.796;2022-08-21T10:52:18;6.20;;;3.60;;
62798;SDS011;48842;51.046;13.796;2022-08-21T10:54:48;7.40;;;3.53;;
62798;SDS011;48842;51.046;13.796;2022-08-21T10:57:25;10.17;;;3.87;;
62798;SDS011;48842;51.046;13.796;2022-08-21T11:00:00;6.83;;;3.00;;
62798;SDS011;48842;51.046;13.796;2022-08-21T11:02:33;4.27;;;2.80;;
62798;SDS011;48842;51.046;13.796;2022-08-21T11:05:11;11.07;;;3.47;;
62798;SDS011;48842;51.046;13.796;2022-08-21T11:07:47;12.77;;;3.93;;
62798;SDS011;48842;51.046;13.796;2022-08-21T11:10:23;3.57;;;3.23;;
62798;SDS011;48842;51.046;13.796;2022-08-21T11:13:00;6.50;;;3.60;;
62798;SDS011;48842;51.046;13.796;2022-08-21T11:18:23;7.13;;;2.93;;
62798;SDS011;48842;51.046;13.796;2022-08-21T11:21:22;6.60;;;3.40;;
62798;SDS011;48842;51.046;13.796;2022-08-21T11:24:06;5.93;;;2.90;;
62798;SDS011;48842;51.046;13.796;2022-08-21T11:27:09;4.60;;;3.37;;
62798;SDS011;48842;51.046;13.796;2022-08-21T11:29:50;10.20;;;2.80;;
62798;SDS011;48842;51.046;13.796;2022-08-21T11:32:31;10.60;;;2.90;;
62798;SDS011;48842;51.046;13.796;2022-08-21T11:35:18;3.97;;;2.70;;
62798;SDS011;48842;51.046;13.796;2022-08-21T11:42:53;9.50;;;2.90;;
62798;SDS011;48842;51.046;13.796;2022-08-21T11:45:39;5.70;;;2.57;;
62798;SDS011;48842;51.046;13.796;2022-08-21T11:48:15;4.40;;;2.77;;
62798;SDS011;48842;51.046;13.796;2022-08-21T11:50:53;8.57;;;3.23;;
62798;SDS011;48842;51.046;13.796;2022-08-21T11:53:25;6.27;;;2.83;;
62798;SDS011;48842;51.046;13.796;2022-08-21T11:56:02;7.33;;;3.20;;
62798;SDS011;48842;51.046;13.796;2022-08-21T11:58:50;5.43;;;2.77;;
62798;SDS011;48842;51.046;13.796;2022-08-21T12:01:21;7.93;;;2.37;;
62798;SDS011;48842;51.046;13.796;2022-08-21T12:03:54;6.50;;;2.00;;
62798;SDS011;48842;51.046;13.796;2022-08-21T12:06:33;4.27;;;2.10;;
62798;SDS011;48842;51.046;13.796;2022-08-21T12:09:30;4.63;;;2.00;;
62798;SDS011;48842;51.046;13.796;2022-08-21T12:12:00;6.13;;;2.20;;
62798;SDS011;48842;51.046;13.796;2022-08-21T12:14:48;5.60;;;2.40;;
62798;SDS011;48842;51.046;13.796;2022-08-21T12:17:18;8.10;;;2.40;;
62798;SDS011;48842;51.046;13.796;2022-08-21T12:19:58;5.07;;;1.97;;
62798;SDS011;48842;51.046;13.796;2022-08-21T12:22:35;8.63;;;2.10;;
62798;SDS011;48842;51.046;13.796;2022-08-21T12:25:06;9.63;;;2.33;;
62798;SDS011;48842;51.046;13.796;2022-08-21T12:30:43;4.57;;;1.80;;
62798;SDS011;48842;51.046;13.796;2022-08-21T12:36:10;5.63;;;1.93;;
62798;SDS011;48842;51.046;13.796;2022-08-21T12:38:50;7.97;;;2.27;;
62798;SDS011;48842;51.046;13.796;2022-08-21T12:41:29;2.20;;;1.80;;
62798;SDS011;48842;51.046;13.796;2022-08-21T12:46:39;6.57;;;2.00;;
62798;SDS011;48842;51.046;13.796;2022-08-21T12:49:17;10.23;;;1.97;;
62798;SDS011;48842;51.046;13.796;2022-08-21T12:51:57;8.30;;;2.20;;
62798;SDS011;48842;51.046;13.796;2022-08-21T12:54:30;6.60;;;2.30;;
62798;SDS011;48842;51.046;13.796;2022-08-21T12:57:02;6.63;;;1.90;;
62798;SDS011;48842;51.046;13.796;2022-08-21T12:59:30;2.30;;;1.53;;
62798;SDS011;48842;51.046;13.796;2022-08-21T13:01:56;5.40;;;2.30;;
62798;SDS011;48842;51.046;13.796;2022-08-21T13:04:33;3.90;;;1.90;;
62798;SDS011;48842;51.046;13.796;2022-08-21T13:07:04;2.53;;;1.80;;
62798;SDS011;48842;51.046;13.796;2022-08-21T13:09:35;5.07;;;1.47;;
62798;SDS011;48842;51.046;13.796;2022-08-21T13:12:07;8.27;;;1.80;;
62798;SDS011;48842;51.046;13.796;2022-08-21T13:14:35;6.37;;;2.10;;
62798;SDS011;48842;51.046;13.796;2022-08-21T13:17:03;5.10;;;1.70;;
62798;SDS011;48842;51.046;13.796;2022-08-21T13:19:30;7.17;;;1.97;;
62798;SDS011;48842;51.046;13.796;2022-08-21T13:21:56;13.37;;;2.50;;
62798;SDS011;48842;51.046;13.796;2022-08-21T13:24:25;5.27;;;1.70;;
62798;SDS011;48842;51.046;13.796;2022-08-21T13:26:52;3.90;;;1.67;;
62798;SDS011;48842;51.046;13.796;2022-08-21T13:29:19;3.77;;;1.63;;
62798;SDS011;48842;51.046;13.796;2022-08-21T13:31:52;5.87;;;2.20;;
62798;SDS011;48842;51.046;13.796;2022-08-21T13:34:23;7.60;;;2.20;;
62798;SDS011;48842;51.046;13.796;2022-08-21T13:36:52;3.80;;;2.30;;
62798;SDS011;48842;51.046;13.796;2022-08-21T13:39:21;8.20;;;2.27;;
62798;SDS011;48842;51.046;13.796;2022-08-21T13:41:47;3.37;;;1.80;;
62798;SDS011;48842;51.046;13.796;2022-08-21T13:44:17;7.80;;;2.30;;
62798;SDS011;48842;51.046;13.796;2022-08-21T13:46:45;11.97;;;1.90;;
62798;SDS011;48842;51.046;13.796;2022-08-21T13:49:13;6.50;;;2.50;;
62798;SDS011;48842;51.046;13.796;2022-08-21T13:51:48;5.13;;;1.67;;
62798;SDS011;48842;51.046;13.796;2022-08-21T13:54:16;6.30;;;2.30;;
62798;SDS011;48842;51.046;13.796;2022-08-21T13:56:48;6.57;;;2.90;;
62798;SDS011;48842;51.046;13.796;2022-08-21T13:59:23;7.73;;;2.37;;
62798;SDS011;48842;51.046;13.796;2022-08-21T14:04:36;5.77;;;1.83;;
62798;SDS011;48842;51.046;13.796;2022-08-21T14:07:14;4.63;;;1.53;;
62798;SDS011;48842;51.046;13.796;2022-08-21T14:09:43;2.67;;;1.60;;
62798;SDS011;48842;51.046;13.796;2022-08-21T14:12:14;1.90;;;1.70;;
62798;SDS011;48842;51.046;13.796;2022-08-21T14:14:48;6.47;;;1.87;;
62798;SDS011;48842;51.046;13.796;2022-08-21T14:17:25;3.90;;;2.10;;
62798;SDS011;48842;51.046;13.796;2022-08-21T14:19:52;2.10;;;1.70;;
62798;SDS011;48842;51.046;13.796;2022-08-21T14:22:32;6.67;;;1.70;;
62798;SDS011;48842;51.046;13.796;2022-08-21T14:25:07;9.80;;;2.00;;
62798;SDS011;48842;51.046;13.796;2022-08-21T14:27:36;4.30;;;2.20;;
62798;SDS011;48842;51.046;13.796;2022-08-21T14:30:19;3.90;;;2.13;;
62798;SDS011;48842;51.046;13.796;2022-08-21T14:32:47;7.33;;;1.80;;
62798;SDS011;48842;51.046;13.796;2022-08-21T14:35:13;5.80;;;1.80;;
62798;SDS011;48842;51.046;13.796;2022-08-21T14:37:42;5.17;;;2.20;;
62798;SDS011;48842;51.046;13.796;2022-08-21T14:40:09;12.30;;;1.97;;
62798;SDS011;48842;51.046;13.796;2022-08-21T14:42:36;7.00;;;2.37;;
62798;SDS011;48842;51.046;13.796;2022-08-21T14:45:13;3.10;;;1.90;;
62798;SDS011;48842;51.046;13.796;2022-08-21T14:47:40;8.83;;;2.50;;
62798;SDS011;48842;51.046;13.796;2022-08-21T14:50:07;3.90;;;1.50;;
62798;SDS011;48842;51.046;13.796;2022-08-21T14:52:33;5.83;;;2.20;;
62798;SDS011;48842;51.046;13.796;2022-08-21T14:54:59;4.93;;;1.90;;
62798;SDS011;48842;51.046;13.796;2022-08-21T14:57:24;4.53;;;1.63;;
62798;SDS011;48842;51.046;13.796;2022-08-21T14:59:53;3.83;;;2.00;;
62798;SDS011;48842;51.046;13.796;2022-08-21T15:02:18;5.10;;;1.77;;
62798;SDS011;48842;51.046;13.796;2022-08-21T15:04:43;3.40;;;1.53;;
62798;SDS011;48842;51.046;13.796;2022-08-21T15:07:08;3.50;;;1.80;;
62798;SDS011;48842;51.046;13.796;2022-08-21T15:09:34;2.47;;;1.70;;
62798;SDS011;48842;51.046;13.796;2022-08-21T15:11:59;4.97;;;1.87;;
62798;SDS011;48842;51.046;13.796;2022-08-21T15:14:27;3.07;;;1.77;;
62798;SDS011;48842;51.046;13.796;2022-08-21T15:16:55;5.63;;;2.17;;
62798;SDS011;48842;51.046;13.796;2022-08-21T15:19:21;8.17;;;2.60;;
62798;SDS011;48842;51.046;13.796;2022-08-21T15:21:47;7.60;;;2.00;;